Time;durP1;ratioP1;P1;durP2;ratioP2;P2;SDS_P1;SDS_P2;PMS_P1;PMS_P2;Temp;Humidity;BMP_temperature;BMP_pressure;BME280_temperature;BME280_humidity;BME280_pressure;Samples;Min_cycle;Max_cycle;Signal;HPM_P1;HPM_P2
2022/09/16 00:01:24;;;;;;;6.65;1.77;;;12.30;99.90;;;;;;5161524;27;20030;-79
2022/09/16 00:03:54;;;;;;;5.30;1.60;;;12.30;99.90;;;;;;5177887;27;20030;-79
2022/09/16 00:06:28;;;;;;;6.10;1.70;;;12.30;99.90;;;;;;5177913;27;20038;-79
2022/09/16 00:08:56;;;;;;;5.47;1.58;;;12.60;99.90;;;;;;5138811;27;20072;-79
2022/09/16 00:11:21;;;;;;;5.32;1.70;;;12.30;99.90;;;;;;5154815;27;20084;-79
2022/09/16 00:13:47;;;;;;;6.65;2.25;;;12.20;99.90;;;;;;5121291;27;20038;-79
2022/09/16 00:16:19;;;;;;;7.47;1.70;;;12.30;99.90;;;;;;5160474;27;20088;-79
2022/09/16 00:18:45;;;;;;;9.23;1.75;;;12.80;99.90;;;;;;5154978;27;20095;-79
2022/09/16 00:21:11;;;;;;;5.35;1.80;;;12.90;99.90;;;;;;5138049;27;20038;-79
2022/09/16 00:23:36;;;;;;;8.02;1.63;;;12.30;99.90;;;;;;5157083;27;20054;-78
2022/09/16 00:26:03;;;;;;;8.88;1.95;;;12.30;99.90;;;;;;5148692;27;20038;-78
2022/09/16 00:28:29;;;;;;;7.25;1.60;;;12.60;99.90;;;;;;5157432;27;20042;-78
2022/09/16 00:31:01;;;;;;;6.00;1.50;;;12.20;99.90;;;;;;5176796;27;20458;-79
2022/09/16 00:33:27;;;;;;;4.95;1.42;;;12.10;99.90;;;;;;5175956;27;20482;-79
2022/09/16 00:36:07;;;;;;;11.43;1.77;;;12.10;99.90;;;;;;5141118;27;20086;-79
2022/09/16 00:38:32;;;;;;;7.35;1.80;;;12.20;99.90;;;;;;5177610;27;20147;-79
2022/09/16 00:40:58;;;;;;;7.82;1.90;;;12.20;99.90;;;;;;5157287;27;20114;-78
2022/09/16 00:43:24;;;;;;;9.23;2.05;;;12.60;99.90;;;;;;5138025;27;20070;-79
2022/09/16 00:46:00;;;;;;;6.57;2.05;;;12.20;99.90;;;;;;5156286;27;20486;-79
2022/09/16 00:48:29;;;;;;;6.05;2.13;;;12.20;99.90;;;;;;5172059;27;20057;-79
2022/09/16 00:51:02;;;;;;;7.82;2.25;;;12.30;99.90;;;;;;5157373;27;20043;-79
2022/09/16 00:53:34;;;;;;;5.40;1.42;;;12.30;99.90;;;;;;5138081;27;20094;-79
2022/09/16 00:56:04;;;;;;;4.00;1.40;;;12.30;99.90;;;;;;5137556;27;20069;-79
2022/09/16 00:58:52;;;;;;;5.32;1.45;;;12.20;99.90;;;;;;5148948;27;20343;-79
2022/09/16 01:01:18;;;;;;;6.38;1.23;;;12.20;99.90;;;;;;5135867;27;20054;-79
2022/09/16 01:03:49;;;;;;;3.30;1.20;;;12.20;99.90;;;;;;5138843;27;20047;-79
2022/09/16 01:06:18;;;;;;;3.30;1.38;;;12.20;99.90;;;;;;5137514;27;20057;-79
2022/09/16 01:08:44;;;;;;;4.78;1.50;;;12.40;99.90;;;;;;5137878;27;20118;-79
2022/09/16 01:11:11;;;;;;;5.28;1.50;;;12.70;99.90;;;;;;5134223;27;20562;-79
2022/09/16 01:13:38;;;;;;;7.75;1.48;;;12.20;99.90;;;;;;5166728;27;20112;-78
2022/09/16 01:16:06;;;;;;;7.78;1.90;;;12.50;99.90;;;;;;5138774;27;20050;-78
2022/09/16 01:18:46;;;;;;;7.43;1.63;;;12.10;99.90;;;;;;5156122;27;20091;-79
2022/09/16 01:21:30;;;;;;;6.82;1.88;;;12.20;99.90;;;;;;5160163;27;20116;-79
2022/09/16 01:24:33;;;;;;;7.22;1.60;;;12.10;99.90;;;;;;5158294;27;20046;-79
2022/09/16 01:27:10;;;;;;;7.22;1.65;;;12.10;99.90;;;;;;5159380;27;20113;-79
2022/09/16 01:30:00;;;;;;;6.63;1.60;;;12.80;99.90;;;;;;5157342;27;20410;-79
2022/09/16 01:32:37;;;;;;;4.93;1.60;;;12.10;99.90;;;;;;5167254;27;20498;-79
2022/09/16 01:35:32;;;;;;;9.07;1.83;;;12.00;99.90;;;;;;5136989;27;20136;-78
2022/09/16 01:38:04;;;;;;;7.35;1.73;;;11.90;99.90;;;;;;5136884;27;20046;-79
2022/09/16 01:40:33;;;;;;;6.22;1.70;;;11.90;99.90;;;;;;5152710;27;20398;-79
2022/09/16 01:43:07;;;;;;;9.35;2.38;;;11.90;99.90;;;;;;5154764;27;20506;-78
2022/09/16 01:45:52;;;;;;;8.18;1.92;;;11.90;99.90;;;;;;5149744;27;20047;-79
2022/09/16 01:48:22;;;;;;;10.02;1.90;;;12.00;99.90;;;;;;5175941;27;20046;-79
2022/09/16 01:51:04;;;;;;;7.38;1.83;;;12.00;99.90;;;;;;5158305;27;20432;-78
2022/09/16 01:53:44;;;;;;;10.73;2.05;;;12.10;99.90;;;;;;5169105;27;20095;-79
2022/09/16 01:56:30;;;;;;;8.23;1.88;;;12.10;99.90;;;;;;5155753;27;20058;-79
2022/09/16 01:59:10;;;;;;;5.68;1.70;;;12.10;99.90;;;;;;5174023;27;20042;-79
2022/09/16 02:01:44;;;;;;;8.27;2.03;;;12.10;99.90;;;;;;5136286;27;20043;-79
2022/09/16 02:04:20;;;;;;;11.43;2.28;;;12.80;99.90;;;;;;5136923;27;20065;-78
2022/09/16 02:06:48;;;;;;;;;;;12.10;99.90;;;;;;5135304;27;20046;-79
2022/09/16 02:09:21;;;;;;;9.80;2.38;;;12.20;99.90;;;;;;5151607;27;19987;-79
2022/09/16 02:11:49;;;;;;;8.02;1.90;;;12.10;99.90;;;;;;5163727;27;20046;-78
2022/09/16 02:14:25;;;;;;;8.25;1.67;;;12.20;99.90;;;;;;5153754;27;20042;-79
2022/09/16 02:17:04;;;;;;;10.50;2.05;;;12.50;99.90;;;;;;5163425;27;20034;-79
2022/09/16 02:19:54;;;;;;;5.68;1.63;;;12.10;99.90;;;;;;5175910;27;20069;-79
2022/09/16 02:22:37;;;;;;;10.02;1.80;;;12.50;99.90;;;;;;5136699;27;20087;-79
2022/09/16 02:25:05;;;;;;;9.40;1.65;;;12.10;99.90;;;;;;5134342;27;20043;-79
2022/09/16 02:27:34;;;;;;;7.95;1.85;;;12.00;99.90;;;;;;5171050;27;20391;-78
2022/09/16 02:30:04;;;;;;;8.90;1.75;;;11.90;99.90;;;;;;5154751;27;20126;-79
2022/09/16 02:32:32;;;;;;;6.50;1.90;;;11.90;99.90;;;;;;5154206;27;20039;-79
2022/09/16 02:35:00;;;;;;;4.38;1.50;;;12.00;99.90;;;;;;5154728;27;20126;-79
2022/09/16 02:37:47;;;;;;;4.68;1.33;;;11.80;99.90;;;;;;5154424;27;20432;-79
2022/09/16 02:40:21;;;;;;;7.63;1.73;;;12.60;99.90;;;;;;5154488;27;20039;-79
2022/09/16 02:42:48;;;;;;;7.07;1.42;;;11.90;99.90;;;;;;5133688;27;20099;-79
2022/09/16 02:45:14;;;;;;;7.18;1.60;;;12.00;99.90;;;;;;5135788;27;20049;-79
2022/09/16 02:47:54;;;;;;;4.90;1.67;;;11.90;99.90;;;;;;5154171;27;20118;-79
2022/09/16 02:50:23;;;;;;;7.57;1.70;;;11.90;99.90;;;;;;5136839;27;20059;-79
2022/09/16 02:52:52;;;;;;;9.02;2.20;;;11.90;99.90;;;;;;5132775;27;20043;-79
2022/09/16 02:55:36;;;;;;;8.38;1.88;;;11.90;99.90;;;;;;5155228;27;20042;-79
2022/09/16 02:58:03;;;;;;;13.02;2.00;;;12.70;99.90;;;;;;5133825;27;20036;-79
2022/09/16 03:00:32;;;;;;;8.15;1.90;;;11.80;99.90;;;;;;5139881;27;20062;-79
2022/09/16 03:02:58;;;;;;;8.20;1.88;;;11.90;99.90;;;;;;5153031;27;20474;-78
2022/09/16 03:05:28;;;;;;;9.70;2.15;;;11.90;99.90;;;;;;5135401;27;20083;-78
2022/09/16 03:07:54;;;;;;;8.45;1.50;;;12.30;99.90;;;;;;5154611;27;20096;-79
2022/09/16 03:10:24;;;;;;;8.77;1.60;;;11.80;99.90;;;;;;5174205;27;20521;-79
2022/09/16 03:13:00;;;;;;;7.68;1.73;;;11.90;99.90;;;;;;5172692;27;20050;-79
2022/09/16 03:15:50;;;;;;;13.02;1.60;;;11.90;99.90;;;;;;5153867;27;20050;-79
2022/09/16 03:18:37;;;;;;;8.35;2.00;;;11.90;99.90;;;;;;5127750;27;20228;-79
2022/09/16 03:21:19;;;;;;;8.82;2.30;;;11.90;99.90;;;;;;5152443;27;20125;-78
2022/09/16 03:24:17;;;;;;;13.27;2.00;;;11.80;99.90;;;;;;5154562;27;20486;-79
2022/09/16 03:27:01;;;;;;;9.73;1.95;;;11.80;99.90;;;;;;5125665;27;20448;-79
2022/09/16 03:29:52;;;;;;;7.30;1.80;;;11.80;99.90;;;;;;5139547;27;20039;-79
2022/09/16 03:32:24;;;;;;;7.43;2.03;;;11.80;99.90;;;;;;5147651;27;20156;-79
2022/09/16 03:34:59;;;;;;;12.07;2.08;;;11.80;99.90;;;;;;5136546;27;20050;-79
2022/09/16 03:37:27;;;;;;;8.75;1.80;;;11.80;99.90;;;;;;5156884;27;20138;-79
2022/09/16 03:39:58;;;;;;;11.93;1.67;;;11.70;99.90;;;;;;5139469;27;20394;-79
2022/09/16 03:42:24;;;;;;;8.77;2.20;;;12.30;99.90;;;;;;5157186;27;20049;-78
2022/09/16 03:44:49;;;;;;;12.18;1.98;;;11.70;99.90;;;;;;5157141;27;20039;-78
2022/09/16 03:47:16;;;;;;;7.85;1.70;;;12.00;99.90;;;;;;5174348;27;20440;-79
2022/09/16 03:49:42;;;;;;;11.02;1.80;;;11.70;99.90;;;;;;5177266;27;20086;-79
2022/09/16 03:52:08;;;;;;;9.60;2.00;;;11.70;99.90;;;;;;5157489;27;20034;-78
2022/09/16 03:54:35;;;;;;;11.10;1.90;;;11.70;99.90;;;;;;5176335;27;20081;-78
2022/09/16 03:57:00;;;;;;;8.18;1.95;;;11.90;99.90;;;;;;5176351;27;20092;-79
2022/09/16 03:59:26;;;;;;;13.50;2.10;;;12.10;99.90;;;;;;5160766;27;20039;-79
2022/09/16 04:01:52;;;;;;;11.55;2.20;;;11.60;99.90;;;;;;5157193;27;20093;-79
2022/09/16 04:04:18;;;;;;;7.20;1.63;;;11.60;99.90;;;;;;5157589;27;20070;-79
2022/09/16 04:06:43;;;;;;;10.55;2.10;;;11.70;99.90;;;;;;5157177;27;20080;-78
2022/09/16 04:09:11;;;;;;;11.55;2.72;;;11.60;99.90;;;;;;5157539;27;20106;-79
2022/09/16 04:11:37;;;;;;;11.18;2.10;;;11.60;99.90;;;;;;5152965;27;20039;-79
2022/09/16 04:14:04;;;;;;;10.63;1.98;;;11.50;99.90;;;;;;5117546;27;20131;-79
2022/09/16 04:16:30;;;;;;;7.65;1.90;;;11.50;99.90;;;;;;5155835;27;20123;-79
2022/09/16 04:18:56;;;;;;;7.65;1.90;;;11.50;99.90;;;;;;5159743;27;20050;-79
2022/09/16 04:21:22;;;;;;;8.32;1.52;;;11.70;99.90;;;;;;5166853;27;20383;-79
2022/09/16 04:23:48;;;;;;;11.48;1.80;;;11.70;99.90;;;;;;5161603;27;20077;-79
2022/09/16 04:26:14;;;;;;;8.32;1.77;;;11.40;99.90;;;;;;5174285;27;20049;-79
2022/09/16 04:28:39;;;;;;;11.80;1.90;;;11.80;99.90;;;;;;5167658;27;20466;-79
2022/09/16 04:31:09;;;;;;;7.40;1.98;;;12.00;99.90;;;;;;5149740;27;20050;-78
2022/09/16 04:33:35;;;;;;;9.60;1.65;;;11.90;99.90;;;;;;5146235;27;20157;-79
2022/09/16 04:36:07;;;;;;;10.27;1.92;;;11.50;99.90;;;;;;5174565;27;20133;-79
2022/09/16 04:38:34;;;;;;;7.65;1.83;;;11.30;99.90;;;;;;5155119;27;20368;-79
2022/09/16 04:41:04;;;;;;;10.05;2.40;;;11.30;99.90;;;;;;5135913;27;20089;-79
2022/09/16 04:43:30;;;;;;;9.85;2.60;;;11.20;99.90;;;;;;5155695;27;20115;-79
2022/09/16 04:45:56;;;;;;;9.40;2.17;;;11.20;99.90;;;;;;5137571;27;20478;-79
2022/09/16 04:48:22;;;;;;;11.52;2.10;;;11.20;99.90;;;;;;5167113;27;20088;-79
2022/09/16 04:50:48;;;;;;;8.43;2.30;;;12.00;99.90;;;;;;5162580;27;20062;-78
2022/09/16 04:53:14;;;;;;;11.50;2.25;;;12.10;99.90;;;;;;5168962;27;20035;-79
2022/09/16 04:55:39;;;;;;;11.90;2.03;;;11.30;99.90;;;;;;5156314;27;20034;-78
2022/09/16 04:58:05;;;;;;;8.73;2.15;;;11.30;99.90;;;;;;5153886;27;20121;-78
2022/09/16 05:00:30;;;;;;;12.30;2.10;;;11.30;99.90;;;;;;5176298;27;20039;-78
2022/09/16 05:02:56;;;;;;;8.23;2.15;;;11.30;99.90;;;;;;5177182;27;20042;-78
2022/09/16 05:05:22;;;;;;;10.93;2.38;;;11.30;99.90;;;;;;5133604;27;20035;-79
2022/09/16 05:07:48;;;;;;;11.50;2.47;;;11.30;99.90;;;;;;5155601;27;20435;-79
2022/09/16 05:10:13;;;;;;;10.95;2.72;;;11.30;99.90;;;;;;5158304;27;20035;-79
2022/09/16 05:12:39;;;;;;;14.45;2.40;;;11.20;99.90;;;;;;5116984;27;20500;-79
2022/09/16 05:15:06;;;;;;;13.85;2.53;;;11.30;99.90;;;;;;5135082;27;20039;-78
2022/09/16 05:17:32;;;;;;;17.98;2.75;;;11.30;99.90;;;;;;5135057;27;20134;-79
2022/09/16 05:19:57;;;;;;;8.40;2.42;;;11.30;99.90;;;;;;5135535;27;20078;-79
2022/09/16 05:22:23;;;;;;;10.95;2.50;;;12.20;99.90;;;;;;5134914;27;20039;-79
2022/09/16 05:24:49;;;;;;;12.00;2.50;;;11.30;99.90;;;;;;5176178;27;20045;-78
2022/09/16 05:27:15;;;;;;;7.60;2.03;;;11.30;99.90;;;;;;5176786;27;20042;-79
2022/09/16 05:29:40;;;;;;;9.23;2.10;;;11.30;99.90;;;;;;5158383;27;20078;-79
2022/09/16 05:32:06;;;;;;;11.35;2.50;;;12.00;99.90;;;;;;5174608;27;20070;-79
2022/09/16 05:34:34;;;;;;;12.30;2.30;;;11.40;99.90;;;;;;5147660;27;20123;-79
2022/09/16 05:37:00;;;;;;;12.05;2.83;;;12.00;99.90;;;;;;5141591;27;20043;-79
2022/09/16 05:39:26;;;;;;;13.75;2.70;;;11.40;99.90;;;;;;5150367;27;20111;-79
2022/09/16 05:41:54;;;;;;;11.05;2.30;;;11.40;99.90;;;;;;5111720;27;20122;-79
2022/09/16 05:44:21;;;;;;;10.48;2.65;;;11.50;99.90;;;;;;5134993;27;20459;-79
2022/09/16 05:46:47;;;;;;;13.85;2.60;;;11.50;99.90;;;;;;5145921;27;20038;-80
2022/09/16 05:49:13;;;;;;;9.65;2.30;;;11.60;99.90;;;;;;5136980;27;20042;-80
2022/09/16 05:51:40;;;;;;;10.32;2.38;;;11.60;99.90;;;;;;5154985;27;20098;-79
2022/09/16 05:54:06;;;;;;;12.48;2.65;;;11.60;99.90;;;;;;5137168;27;20043;-80
2022/09/16 05:56:32;;;;;;;14.57;2.45;;;11.60;99.90;;;;;;5140319;27;20168;-79
2022/09/16 05:58:59;;;;;;;9.88;2.20;;;11.60;99.90;;;;;;5155752;27;20039;-80
2022/09/16 06:01:30;;;;;;;11.98;2.17;;;11.60;99.90;;;;;;5155387;27;20347;-79
2022/09/16 06:03:57;;;;;;;17.77;2.65;;;11.60;99.90;;;;;;5155278;27;20062;-79
2022/09/16 06:06:34;;;;;;;8.38;2.05;;;12.50;99.90;;;;;;5154813;27;20048;-79
2022/09/16 06:09:05;;;;;;;10.18;2.45;;;11.70;99.90;;;;;;5155144;27;20090;-79
2022/09/16 06:11:34;;;;;;;12.70;2.58;;;11.70;99.90;;;;;;5154737;27;20042;-79
2022/09/16 06:14:00;;;;;;;10.18;2.10;;;12.50;99.90;;;;;;5136640;27;20046;-80
2022/09/16 06:16:30;;;;;;;10.57;2.20;;;11.80;99.90;;;;;;5137297;27;20035;-79
2022/09/16 06:18:56;;;;;;;9.05;2.30;;;11.90;99.90;;;;;;5154926;27;20118;-79
2022/09/16 06:21:22;;;;;;;10.27;2.33;;;11.80;99.90;;;;;;5154278;27;20530;-80
2022/09/16 06:23:48;;;;;;;13.23;2.53;;;11.80;99.90;;;;;;5166568;27;20364;-79
2022/09/16 06:26:19;;;;;;;13.52;2.38;;;11.80;99.90;;;;;;5139442;27;20451;-79
2022/09/16 06:28:45;;;;;;;11.55;2.38;;;11.80;99.90;;;;;;5175808;27;20091;-80
2022/09/16 06:31:17;;;;;;;10.95;2.47;;;12.00;99.90;;;;;;5167176;27;20054;-79
2022/09/16 06:33:44;;;;;;;10.60;2.25;;;11.90;99.90;;;;;;5135910;27;20125;-79
2022/09/16 06:36:16;;;;;;;12.65;2.40;;;11.80;99.90;;;;;;5148826;27;20042;-79
2022/09/16 06:38:42;;;;;;;11.93;2.30;;;12.30;99.90;;;;;;5123612;27;20415;-79
2022/09/16 06:41:10;;;;;;;14.32;2.50;;;12.40;99.90;;;;;;5175064;27;20498;-79
2022/09/16 06:43:36;;;;;;;10.40;2.10;;;12.30;99.90;;;;;;5156582;27;20045;-79
2022/09/16 06:46:12;;;;;;;10.63;2.25;;;12.60;99.90;;;;;;5157263;27;20035;-79
2022/09/16 06:48:39;;;;;;;9.35;2.25;;;13.20;99.90;;;;;;5134359;27;20053;-80
2022/09/16 06:51:11;;;;;;;10.48;2.20;;;13.80;99.90;;;;;;5148669;27;20035;-79
2022/09/16 06:53:37;;;;;;;9.73;2.90;;;14.80;99.90;;;;;;5155404;27;20049;-79
2022/09/16 06:56:10;;;;;;;14.15;2.35;;;16.30;99.90;;;;;;5156930;27;20053;-80
2022/09/16 06:58:36;;;;;;;9.02;2.17;;;17.20;99.90;;;;;;5157811;27;20053;-79
2022/09/16 07:01:06;;;;;;;10.40;2.85;;;18.30;99.90;;;;;;5155275;27;20051;-79
2022/09/16 07:03:32;;;;;;;9.45;2.08;;;18.50;99.90;;;;;;5154718;27;20422;-79
2022/09/16 07:06:03;;;;;;;14.23;2.10;;;18.40;99.90;;;;;;5134800;27;20130;-80
2022/09/16 07:08:33;;;;;;;11.35;2.53;;;18.30;99.90;;;;;;5134884;27;20047;-78
2022/09/16 07:11:00;;;;;;;10.65;2.35;;;17.10;99.90;;;;;;5153926;27;20440;-79
2022/09/16 07:13:26;;;;;;;9.85;2.33;;;16.50;99.90;;;;;;5154410;27;20045;-79
2022/09/16 07:15:53;;;;;;;11.57;2.67;;;16.70;99.90;;;;;;5118143;27;20054;-79
2022/09/16 07:18:19;;;;;;;13.30;2.78;;;15.60;99.90;;;;;;5135953;27;20356;-79
2022/09/16 07:20:44;;;;;;;14.70;2.13;;;15.20;99.90;;;;;;5134068;27;20038;-79
2022/09/16 07:23:10;;;;;;;10.73;1.83;;;15.60;99.90;;;;;;5135728;27;20043;-79
2022/09/16 07:25:36;;;;;;;11.35;2.55;;;14.60;99.90;;;;;;5133691;27;20039;-79
2022/09/16 07:28:02;;;;;;;9.88;2.55;;;14.50;99.90;;;;;;5135819;27;20074;-79
2022/09/16 07:30:29;;;;;;;11.80;2.38;;;14.50;99.90;;;;;;5139867;27;20039;-79
2022/09/16 07:32:55;;;;;;;10.30;2.20;;;14.60;99.90;;;;;;5145688;27;20062;-79
2022/09/16 07:35:21;;;;;;;15.25;2.25;;;14.80;99.90;;;;;;5137359;27;20439;-79
2022/09/16 07:37:47;;;;;;;7.30;2.30;;;15.00;99.90;;;;;;5173281;27;20174;-79
2022/09/16 07:40:12;;;;;;;9.25;2.10;;;15.10;99.90;;;;;;5154863;27;20120;-80
2022/09/16 07:42:39;;;;;;;9.63;2.22;;;15.70;99.90;;;;;;5154694;27;20433;-80
2022/09/16 07:45:05;;;;;;;10.02;2.20;;;15.60;99.90;;;;;;5174546;27;20101;-79
2022/09/16 07:47:31;;;;;;;9.27;2.13;;;15.70;99.90;;;;;;5149771;27;20470;-79
2022/09/16 07:49:56;;;;;;;11.30;2.17;;;16.00;99.90;;;;;;5139717;27;20045;-79
2022/09/16 07:52:28;;;;;;;12.23;2.28;;;16.60;99.90;;;;;;5132930;27;20100;-79
2022/09/16 07:54:54;;;;;;;13.70;2.30;;;16.20;99.90;;;;;;5133479;27;20341;-79
2022/09/16 07:57:21;;;;;;;10.88;2.30;;;16.10;99.90;;;;;;5132987;27;20039;-79
2022/09/16 07:59:47;;;;;;;11.88;2.03;;;16.00;99.90;;;;;;5114737;28;20090;-79
2022/09/16 08:02:12;;;;;;;15.40;2.35;;;15.90;99.90;;;;;;5129379;27;20410;-79
2022/09/16 08:04:38;;;;;;;10.55;2.10;;;15.80;99.90;;;;;;5113893;28;20127;-80
2022/09/16 08:07:04;;;;;;;10.55;2.55;;;15.70;99.90;;;;;;5113346;28;20364;-80
2022/09/16 08:09:30;;;;;;;16.00;3.00;;;15.80;99.90;;;;;;5097294;28;20046;-80
2022/09/16 08:11:56;;;;;;;10.27;2.25;;;15.90;99.90;;;;;;5136240;27;20039;-81
2022/09/16 08:14:22;;;;;;;13.15;2.72;;;16.00;99.90;;;;;;5118703;27;20055;-80
2022/09/16 08:16:50;;;;;;;11.30;2.50;;;16.50;99.90;;;;;;5136105;27;20046;-80
2022/09/16 08:19:16;;;;;;;13.77;2.40;;;16.20;99.90;;;;;;5136607;27;20047;-80
2022/09/16 08:21:42;;;;;;;8.50;2.38;;;16.30;99.90;;;;;;5136670;27;20330;-80
2022/09/16 08:24:08;;;;;;;13.98;2.45;;;17.10;99.90;;;;;;5137178;27;20047;-80
2022/09/16 08:26:34;;;;;;;13.25;2.75;;;16.80;99.90;;;;;;5136195;27;20119;-80
2022/09/16 08:29:00;;;;;;;14.35;2.97;;;16.70;99.90;;;;;;5137234;27;20043;-79
2022/09/16 08:31:26;;;;;;;15.45;1.95;;;16.80;99.90;;;;;;5133777;27;20043;-79
2022/09/16 08:33:52;;;;;;;9.93;2.08;;;17.00;99.90;;;;;;5136467;27;20092;-80
2022/09/16 08:36:20;;;;;;;12.73;2.10;;;17.20;99.90;;;;;;5136093;27;20049;-80
2022/09/16 08:38:47;;;;;;;10.48;2.10;;;17.40;99.90;;;;;;5135030;27;20043;-79
2022/09/16 08:41:24;;;;;;;10.43;2.08;;;17.50;99.90;;;;;;5135748;27;20042;-80
2022/09/16 08:44:11;;;;;;;11.20;1.95;;;17.70;99.90;;;;;;5116884;27;20043;-79
2022/09/16 08:46:48;;;;;;;7.95;1.98;;;18.00;99.90;;;;;;5147445;27;20042;-81
2022/09/16 08:49:21;;;;;;;8.23;2.20;;;18.10;99.90;;;;;;5120479;27;20061;-81
2022/09/16 08:51:48;;;;;;;11.00;2.22;;;18.20;99.90;;;;;;5137148;27;20042;-80
2022/09/16 08:54:26;;;;;;;11.35;2.25;;;18.40;99.90;;;;;;5155799;27;20424;-80
2022/09/16 08:56:56;;;;;;;9.95;2.33;;;18.50;99.90;;;;;;5123532;27;20054;-80
2022/09/16 08:59:26;;;;;;;10.57;2.08;;;18.90;99.90;;;;;;5117621;27;20422;-80
2022/09/16 09:02:10;;;;;;;10.95;2.05;;;18.80;99.90;;;;;;5116673;27;20051;-79
2022/09/16 09:04:36;;;;;;;12.20;2.40;;;19.00;99.90;;;;;;5135513;27;20046;-80
2022/09/16 09:07:18;;;;;;;12.77;2.53;;;18.80;99.90;;;;;;5135231;27;20548;-79
2022/09/16 09:10:06;;;;;;;14.73;2.70;;;18.50;99.90;;;;;;5132866;27;20108;-79
2022/09/16 09:12:38;;;;;;;11.57;2.25;;;18.30;99.90;;;;;;5133339;27;20047;-80
2022/09/16 09:15:33;;;;;;;11.68;2.63;;;18.00;99.90;;;;;;5116808;27;20043;-80
2022/09/16 09:18:19;;;;;;;11.70;2.50;;;18.00;99.90;;;;;;5116834;27;20050;-79
2022/09/16 09:21:05;;;;;;;9.70;2.20;;;18.10;99.90;;;;;;5150929;27;20179;-80
2022/09/16 09:23:54;;;;;;;10.93;2.55;;;18.50;99.90;;;;;;5135406;27;20039;-80
2022/09/16 09:26:38;;;;;;;12.73;2.65;;;18.70;99.90;;;;;;5135096;27;20377;-79
2022/09/16 09:29:18;;;;;;;9.20;2.22;;;19.00;99.90;;;;;;5150121;27;20135;-79
2022/09/16 09:32:15;;;;;;;14.63;2.60;;;19.30;99.90;;;;;;5133596;27;20191;-79
2022/09/16 09:34:50;;;;;;;9.30;1.92;;;19.50;99.50;;;;;;5116332;27;20051;-79
2022/09/16 09:37:31;;;;;;;10.98;2.30;;;19.70;98.60;;;;;;5115948;27;20047;-80
2022/09/16 09:40:25;;;;;;;10.60;2.20;;;19.90;97.80;;;;;;5134782;27;20522;-79
2022/09/16 09:43:17;;;;;;;5.78;1.80;;;20.30;97.30;;;;;;5134202;27;20043;-79
2022/09/16 09:46:07;;;;;;;9.75;1.60;;;20.70;97.10;;;;;;5115317;27;20051;-79
2022/09/16 09:48:39;;;;;;;9.43;2.20;;;21.00;96.60;;;;;;5115655;27;20047;-79
2022/09/16 09:51:27;;;;;;;10.75;2.17;;;21.00;96.10;;;;;;5132788;27;20043;-79
2022/09/16 09:54:04;;;;;;;8.68;1.88;;;20.60;96.60;;;;;;5134487;27;20047;-78
2022/09/16 09:56:40;;;;;;;8.63;1.98;;;20.50;97.50;;;;;;5150158;27;20387;-78
2022/09/16 09:59:37;;;;;;;10.23;2.33;;;20.60;98.10;;;;;;5134386;27;20043;-78
2022/09/16 10:02:16;;;;;;;11.80;2.03;;;20.50;99.00;;;;;;5149897;27;20126;-78
2022/09/16 10:04:41;;;;;;;10.68;2.08;;;20.70;99.10;;;;;;5137729;27;20368;-80
2022/09/16 10:07:08;;;;;;;9.82;2.20;;;20.70;98.60;;;;;;5155606;27;20167;-80
2022/09/16 10:09:35;;;;;;;12.65;2.40;;;20.40;98.60;;;;;;5153691;27;20122;-75
2022/09/16 10:12:03;;;;;;;9.52;2.00;;;19.90;99.90;;;;;;5135112;27;20049;-74
2022/09/16 10:14:34;;;;;;;10.98;2.20;;;19.60;99.60;;;;;;5119374;27;20183;-74
2022/09/16 10:17:12;;;;;;;7.63;2.00;;;19.50;99.60;;;;;;5133505;27;20049;-74
2022/09/16 10:19:50;;;;;;;9.18;2.20;;;19.50;99.90;;;;;;5132602;27;20074;-75
2022/09/16 10:22:29;;;;;;;9.57;2.00;;;19.90;99.70;;;;;;5131338;27;20050;-74
2022/09/16 10:25:19;;;;;;;9.63;2.20;;;19.90;99.60;;;;;;5153676;27;20049;-74
2022/09/16 10:27:55;;;;;;;10.25;2.10;;;19.80;99.80;;;;;;5153462;27;20436;-75
2022/09/16 10:30:21;;;;;;;9.70;2.13;;;19.80;99.30;;;;;;5135407;27;20043;-74
2022/09/16 10:32:53;;;;;;;11.88;2.42;;;19.60;99.10;;;;;;5152959;27;20111;-74
2022/09/16 10:35:23;;;;;;;10.68;2.10;;;19.20;99.90;;;;;;5153244;27;20088;-75
2022/09/16 10:37:52;;;;;;;8.20;1.95;;;18.80;99.90;;;;;;5153622;27;20050;-76
2022/09/16 10:40:18;;;;;;;9.35;2.25;;;18.80;99.90;;;;;;5153924;27;20087;-76
2022/09/16 10:42:48;;;;;;;7.22;1.90;;;18.50;99.90;;;;;;5134902;27;20095;-76
2022/09/16 10:45:26;;;;;;;8.32;2.03;;;18.90;99.90;;;;;;5153984;27;20130;-76
2022/09/16 10:47:58;;;;;;;9.77;2.30;;;19.50;99.30;;;;;;5152921;27;20115;-75
2022/09/16 10:50:24;;;;;;;10.82;1.90;;;19.80;99.80;;;;;;5135004;27;20042;-76
2022/09/16 10:52:51;;;;;;;8.45;1.88;;;20.30;99.20;;;;;;5135327;27;20406;-77
2022/09/16 10:55:24;;;;;;;5.60;1.70;;;20.60;98.60;;;;;;5117758;27;20057;-76
2022/09/16 10:57:50;;;;;;;7.03;2.08;;;21.00;98.20;;;;;;5135216;27;20051;-76
2022/09/16 11:00:25;;;;;;;8.15;1.70;;;21.70;96.40;;;;;;5135046;27;20498;-75
2022/09/16 11:03:00;;;;;;;7.55;1.75;;;21.80;95.40;;;;;;5154353;27;20081;-75
2022/09/16 11:05:32;;;;;;;9.48;2.00;;;21.90;94.40;;;;;;5156491;27;20503;-74
2022/09/16 11:08:28;;;;;;;8.23;1.98;;;21.90;94.80;;;;;;5147562;27;20122;-75
2022/09/16 11:11:11;;;;;;;7.25;1.90;;;22.00;95.10;;;;;;5160190;27;20086;-74
2022/09/16 11:13:37;;;;;;;9.82;2.10;;;22.00;94.50;;;;;;5132713;27;20134;-75
2022/09/16 11:16:09;;;;;;;6.00;1.90;;;21.60;95.10;;;;;;5114019;28;20127;-75
2022/09/16 11:18:49;;;;;;;13.75;2.50;;;21.20;93.90;;;;;;5153094;27;20047;-74
2022/09/16 11:21:23;;;;;;;9.35;2.22;;;20.80;92.50;;;;;;5134815;27;20491;-75
2022/09/16 11:24:10;;;;;;;7.30;2.17;;;20.50;93.30;;;;;;5150968;27;20125;-74
2022/09/16 11:26:44;;;;;;;9.77;2.33;;;20.60;94.10;;;;;;5154513;27;20117;-75
2022/09/16 11:29:20;;;;;;;21.05;4.07;;;20.70;93.90;;;;;;5153610;27;20035;-75
2022/09/16 11:31:51;;;;;;;16.88;4.72;;;20.80;94.30;;;;;;5154709;27;20062;-76
2022/09/16 11:34:22;;;;;;;17.30;3.17;;;21.00;94.20;;;;;;5173775;27;20126;-74
2022/09/16 11:37:00;;;;;;;15.73;3.47;;;21.20;93.60;;;;;;5153814;27;20042;-76
2022/09/16 11:39:44;;;;;;;11.50;2.53;;;21.30;93.60;;;;;;5151212;27;20069;-72
2022/09/16 11:42:34;;;;;;;12.55;2.55;;;21.30;93.60;;;;;;5169676;27;20049;-73
2022/09/16 11:45:24;;;;;;;13.02;2.88;;;21.50;93.30;;;;;;5154251;27;20046;-72
2022/09/16 11:48:11;;;;;;;12.65;2.50;;;21.70;93.40;;;;;;5174895;27;20392;-72
2022/09/16 11:50:44;;;;;;;13.63;2.80;;;21.80;93.30;;;;;;5174485;27;20046;-72
2022/09/16 11:53:40;;;;;;;13.60;2.60;;;21.80;93.80;;;;;;5155659;27;20102;-72
2022/09/16 11:56:25;;;;;;;16.10;2.55;;;21.80;93.70;;;;;;5169664;27;20042;-72
2022/09/16 11:59:24;;;;;;;16.10;2.65;;;21.90;93.40;;;;;;5146519;27;20069;-73
2022/09/16 12:02:13;;;;;;;14.88;2.45;;;22.00;93.40;;;;;;5131597;27;20058;-73
2022/09/16 12:04:53;;;;;;;15.20;2.72;;;22.00;93.10;;;;;;5149910;27;20047;-74
2022/09/16 12:07:29;;;;;;;13.52;2.25;;;21.90;92.70;;;;;;5157910;27;20054;-76
2022/09/16 12:10:13;;;;;;;14.25;2.92;;;21.40;92.80;;;;;;5155301;27;20030;-77
2022/09/16 12:12:51;;;;;;;11.57;2.80;;;21.10;93.30;;;;;;5174591;27;20445;-78
2022/09/16 12:15:19;;;;;;;15.77;3.17;;;20.90;94.00;;;;;;5173305;27;20043;-78
2022/09/16 12:17:55;;;;;;;12.18;2.53;;;21.00;93.90;;;;;;5141989;27;20038;-78
2022/09/16 12:20:34;;;;;;;11.45;3.05;;;20.90;93.40;;;;;;5156495;27;20061;-77
2022/09/16 12:23:12;;;;;;;13.98;2.53;;;20.80;93.40;;;;;;5156663;27;20054;-75
2022/09/16 12:26:04;;;;;;;12.55;2.88;;;21.00;93.00;;;;;;5137780;27;20046;-78
2022/09/16 12:28:51;;;;;;;16.02;2.88;;;21.00;92.90;;;;;;5117065;27;20120;-77
2022/09/16 12:31:33;;;;;;;13.90;2.75;;;21.10;93.40;;;;;;5116798;27;20057;-77
2022/09/16 12:34:17;;;;;;;14.02;3.20;;;21.20;93.60;;;;;;5145504;27;20201;-77
2022/09/16 12:36:48;;;;;;;17.90;3.10;;;21.40;93.90;;;;;;5137330;27;20051;-77
2022/09/16 12:39:14;;;;;;;18.58;2.85;;;21.60;94.10;;;;;;5157311;27;20440;-77
2022/09/16 12:41:54;;;;;;;20.02;3.75;;;21.60;93.90;;;;;;5167183;27;20043;-76
2022/09/16 12:44:48;;;;;;;12.80;3.00;;;21.40;93.90;;;;;;5138603;27;20078;-74
2022/09/16 12:47:22;;;;;;;13.38;2.40;;;20.90;95.30;;;;;;5120472;27;20043;-74
2022/09/16 12:50:19;;;;;;;12.13;2.42;;;20.30;96.40;;;;;;5100504;27;20047;-74
2022/09/16 12:53:20;;;;;;;12.15;2.40;;;19.70;97.20;;;;;;5142011;27;20410;-74
2022/09/16 12:56:16;;;;;;;10.70;2.03;;;19.50;97.30;;;;;;5118961;27;20054;-74
2022/09/16 12:59:05;;;;;;;7.88;1.52;;;19.20;97.20;;;;;;5134339;27;20043;-75
2022/09/16 13:01:37;;;;;;;6.28;1.80;;;19.10;96.40;;;;;;5153199;27;20038;-76
2022/09/16 13:04:18;;;;;;;8.70;1.98;;;18.90;97.00;;;;;;5135095;27;20043;-75
2022/09/16 13:06:54;;;;;;;8.40;2.10;;;18.80;97.00;;;;;;5151688;27;20058;-75
2022/09/16 13:09:27;;;;;;;7.28;1.70;;;18.70;97.50;;;;;;5155163;27;20054;-74
2022/09/16 13:11:58;;;;;;;8.18;2.10;;;18.70;97.70;;;;;;5171037;27;20030;-77